Time;durP1;ratioP1;P1;durP2;ratioP2;P2;SDS_P1;SDS_P2;PMS_P1;PMS_P2;Temp;Humidity;BMP_temperature;BMP_pressure;BME280_temperature;BME280_humidity;BME280_pressure;Samples;Min_cycle;Max_cycle;Signal;HPM_P1;HPM_P2
2021/01/27 00:00:00;;;;;;;2.67;0.70;;;;;;;-4.56;85.81;100362.41;5031221;28;20224;-68
2021/01/27 00:02:27;;;;;;;0.40;0.40;;;;;;;-4.55;85.86;100369.38;5028552;28;20238;-68
2021/01/27 00:04:54;;;;;;;0.43;0.43;;;;;;;-4.58;85.52;100367.66;5031262;28;20662;-68
2021/01/27 00:07:21;;;;;;;0.63;0.40;;;;;;;-4.59;85.87;100365.03;5030612;28;20222;-68
2021/01/27 00:09:49;;;;;;;0.50;0.50;;;;;;;-4.61;85.81;100364.19;5022696;28;20602;-68
2021/01/27 00:12:16;;;;;;;15.83;9.40;;;;;;;-4.75;84.81;100361.75;5024540;28;20662;-68
2021/01/27 00:14:44;;;;;;;1.50;1.40;;;;;;;-4.64;85.73;100362.47;5029452;28;20632;-68
2021/01/27 00:17:11;;;;;;;0.80;0.80;;;;;;;-4.59;85.87;100357.19;5028673;28;20202;-68
2021/01/27 00:19:38;;;;;;;0.90;0.90;;;;;;;-4.61;85.91;100358.94;5017832;28;20230;-68
2021/01/27 00:22:05;;;;;;;0.60;0.60;;;;;;;-4.67;85.50;100359.91;5031895;28;20202;-68
2021/01/27 00:24:32;;;;;;;0.53;0.53;;;;;;;-4.59;85.69;100358.06;5029336;28;20206;-68
2021/01/27 00:26:59;;;;;;;0.43;0.43;;;;;;;-4.56;85.55;100362.41;5026321;28;20222;-68
2021/01/27 00:29:27;;;;;;;0.40;0.40;;;;;;;-4.58;85.12;100353.69;5022838;28;20571;-68
2021/01/27 00:31:55;;;;;;;0.97;0.60;;;;;;;-4.54;85.40;100360.63;5023546;28;20207;-68
2021/01/27 00:34:22;;;;;;;1.07;0.67;;;;;;;-4.49;85.38;100356.19;5027964;28;20661;-68
2021/01/27 00:36:50;;;;;;;0.87;0.40;;;;;;;-4.64;84.79;100359.00;5030098;28;20202;-67
2021/01/27 00:39:18;;;;;;;0.30;0.30;;;;;;;-4.58;84.85;100351.94;5028524;28;20198;-68
2021/01/27 00:41:45;;;;;;;0.80;0.80;;;;;;;-4.54;84.62;100360.63;5016937;28;20278;-68
2021/01/27 00:44:12;;;;;;;0.40;0.40;;;;;;;-4.48;85.16;100365.78;5018364;28;20232;-68
2021/01/27 00:46:39;;;;;;;0.50;0.50;;;;;;;-4.57;84.63;100365.91;5029566;28;20198;-68
2021/01/27 00:49:08;;;;;;;1.93;1.23;;;;;;;-4.60;84.44;100365.91;5027784;28;20673;-68
2021/01/27 00:51:35;;;;;;;0.70;0.70;;;;;;;-4.60;84.46;100363.31;5029420;28;20268;-68
2021/01/27 00:54:03;;;;;;;1.53;1.43;;;;;;;-4.56;84.82;100367.66;5020780;28;20198;-68
2021/01/27 00:56:30;;;;;;;1.10;1.07;;;;;;;-4.64;84.59;100359.00;5017513;28;20249;-68
2021/01/27 00:58:57;;;;;;;0.80;0.67;;;;;;;-4.54;85.17;100371.97;5030614;28;20260;-68
2021/01/27 01:01:34;;;;;;;0.90;0.90;;;;;;;-4.53;84.88;100367.59;5029290;28;20210;-67
2021/01/27 01:04:05;;;;;;;0.50;0.50;;;;;;;-4.56;85.18;100370.25;5029135;28;20230;-67
2021/01/27 01:06:33;;;;;;;2.60;1.30;;;;;;;-4.61;85.42;100367.66;5030988;28;20213;-67
2021/01/27 01:09:00;;;;;;;0.23;0.23;;;;;;;-4.62;85.30;100365.94;5030261;28;20207;-67
2021/01/27 01:11:27;;;;;;;1.13;1.10;;;;;;;-4.57;85.60;100368.53;5027350;28;20673;-68
2021/01/27 01:13:54;;;;;;;1.00;0.77;;;;;;;-4.53;85.67;100367.59;5023265;28;20223;-67
2021/01/27 01:16:21;;;;;;;0.70;0.40;;;;;;;-4.57;85.47;100371.16;5029885;28;20202;-67
2021/01/27 01:18:49;;;;;;;0.70;0.70;;;;;;;-4.59;85.49;100365.03;5023766;28;20263;-67
2021/01/27 01:21:17;;;;;;;1.83;0.70;;;;;;;-4.61;84.93;100365.06;5030563;28;20735;-68
2021/01/27 01:23:45;;;;;;;0.53;0.53;;;;;;;-4.57;85.61;100368.53;5030941;28;20269;-67
2021/01/27 01:26:12;;;;;;;0.40;0.40;;;;;;;-4.57;85.12;100363.28;5028306;28;20206;-68
2021/01/27 01:28:39;;;;;;;4.03;0.30;;;;;;;-4.57;85.29;100364.16;5020737;28;20675;-68
2021/01/27 01:31:06;;;;;;;0.47;0.30;;;;;;;-4.65;84.97;100367.72;5026233;28;20221;-68
2021/01/27 01:33:34;;;;;;;0.30;0.30;;;;;;;-4.60;85.48;100365.91;5029700;28;20198;-67
2021/01/27 01:36:01;;;;;;;0.10;0.10;;;;;;;-4.58;85.80;100358.94;5031037;28;20868;-68
2021/01/27 01:38:28;;;;;;;0.70;0.50;;;;;;;-4.57;85.94;100358.91;5028443;28;20202;-68
2021/01/27 01:40:58;;;;;;;0.50;0.50;;;;;;;-4.66;85.93;100350.28;5024414;28;20196;-68
2021/01/27 01:43:28;;;;;;;0.20;0.20;;;;;;;-4.59;86.48;100370.28;5028036;28;20616;-68
2021/01/27 01:45:57;;;;;;;7.93;0.40;;;;;;;-4.52;86.53;100369.34;5020137;28;20264;-68
2021/01/27 01:48:29;;;;;;;0.47;0.47;;;;;;;-4.57;86.83;100360.66;5028785;28;20198;-68
2021/01/27 01:51:03;;;;;;;0.70;0.70;;;;;;;-4.56;86.80;100367.66;5022493;28;20214;-67
2021/01/27 01:53:31;;;;;;;0.20;0.20;;;;;;;-4.61;87.08;100367.66;5025562;28;20675;-68
2021/01/27 01:56:04;;;;;;;0.30;0.30;;;;;;;-4.60;87.09;100371.16;5022597;28;20221;-67
2021/01/27 01:58:31;;;;;;;0.30;0.30;;;;;;;-4.56;86.94;100370.25;5026181;28;20281;-68
2021/01/27 02:01:00;;;;;;;4.47;0.50;;;;;;;-4.57;87.18;100376.38;5027635;28;20202;-67
2021/01/27 02:03:29;;;;;;;0.83;0.73;;;;;;;-4.59;87.20;100376.41;5029080;28;20591;-67
2021/01/27 02:05:57;;;;;;;1.03;0.60;;;;;;;-4.66;86.79;100366.00;5027352;28;20257;-68
2021/01/27 02:08:25;;;;;;;0.30;0.30;;;;;;;-4.67;87.03;100378.22;5027228;28;20898;-67
2021/01/27 02:10:52;;;;;;;166.40;59.50;;;;;;;-4.69;86.81;100362.53;5028491;28;20202;-67
2021/01/27 02:13:58;;;;;;;3.57;1.40;;;;;;;-4.94;86.75;100320.94;5031220;28;20317;-68
2021/01/27 02:16:34;;;;;;;3.37;0.77;;;;;;;-4.72;87.16;100361.72;5028817;28;20661;-67
2021/01/27 02:19:33;;;;;;;0.57;0.57;;;;;;;-4.64;87.68;100365.09;5030860;28;20273;-68
2021/01/27 02:22:36;;;;;;;2.10;0.63;;;;;;;-4.65;87.70;100362.50;5021605;28;20202;-67
2021/01/27 02:25:48;;;;;;;6.00;1.10;;;;;;;-4.71;87.52;100355.59;5031215;28;20210;-68
2021/01/27 02:28:35;;;;;;;0.60;0.60;;;;;;;-4.70;87.72;100362.56;5031727;28;20201;-67
2021/01/27 02:31:15;;;;;;;0.20;0.20;;;;;;;-4.71;87.74;100353.84;5034044;28;20303;-67
2021/01/27 02:34:01;;;;;;;0.60;0.60;;;;;;;-4.71;87.80;100363.44;5032824;28;20218;-67
2021/01/27 02:36:34;;;;;;;0.33;0.33;;;;;;;-4.72;87.90;100356.47;5032565;28;20213;-67
2021/01/27 02:39:06;;;;;;;0.83;0.53;;;;;;;-4.71;87.98;100361.69;5022172;28;20664;-68
2021/01/27 02:41:40;;;;;;;0.40;0.40;;;;;;;-4.72;88.07;100364.34;5033871;28;20661;-67
2021/01/27 02:44:11;;;;;;;0.30;0.30;;;;;;;-4.63;88.08;100366.81;5023084;28;20236;-68
2021/01/27 02:46:44;;;;;;;0.20;0.20;;;;;;;-4.64;88.35;100361.59;5025922;28;20247;-68
2021/01/27 02:49:15;;;;;;;0.73;0.40;;;;;;;-4.57;88.17;100376.38;5021342;28;20202;-68
2021/01/27 02:51:49;;;;;;;0.90;0.57;;;;;;;-4.59;88.21;100378.13;5032529;28;20213;-68
2021/01/27 02:54:21;;;;;;;0.60;0.60;;;;;;;-4.56;88.63;100375.50;5020486;28;20209;-68
2021/01/27 02:56:54;;;;;;;0.53;0.53;;;;;;;-4.57;88.09;100377.25;5029740;28;20213;-69
2021/01/27 02:59:26;;;;;;;0.30;0.30;;;;;;;-4.60;88.09;100376.41;5028019;28;20195;-68
2021/01/27 03:01:59;;;;;;;0.30;0.30;;;;;;;-4.61;87.93;100378.16;5023054;28;20203;-68
2021/01/27 03:04:31;;;;;;;0.90;0.90;;;;;;;-4.63;87.73;100371.19;5031220;28;20248;-68
2021/01/27 03:07:02;;;;;;;0.50;0.50;;;;;;;-4.65;87.54;100375.59;5032254;28;20612;-68
2021/01/27 03:09:39;;;;;;;0.43;0.43;;;;;;;-4.68;87.63;100373.88;5029472;28;20277;-68
2021/01/27 03:12:08;;;;;;;0.40;0.40;;;;;;;-4.71;87.51;100369.53;5022871;28;20202;-68
2021/01/27 03:14:35;;;;;;;0.47;0.40;;;;;;;-4.70;87.81;100368.66;5028659;28;20309;-68
2021/01/27 03:17:05;;;;;;;1.07;0.40;;;;;;;-4.72;87.54;100367.81;5030816;28;20194;-68
2021/01/27 03:19:38;;;;;;;0.30;0.30;;;;;;;-4.76;87.43;100363.50;5031132;28;20222;-68
2021/01/27 03:22:11;;;;;;;0.20;0.20;;;;;;;-4.84;87.09;100372.34;5032001;28;20214;-68
2021/01/27 03:24:47;;;;;;;0.10;0.10;;;;;;;-4.89;87.04;100367.16;5030519;28;20218;-68
2021/01/27 03:27:17;;;;;;;0.40;0.40;;;;;;;-4.90;86.94;100373.25;5022253;28;20202;-68
2021/01/27 03:29:47;;;;;;;2.97;0.40;;;;;;;-5.08;87.13;100340.31;5028164;28;20203;-68
2021/01/27 03:32:22;;;;;;;2.17;0.43;;;;;;;-4.87;88.01;100369.75;5026463;28;20739;-68
2021/01/27 03:34:56;;;;;;;0.33;0.33;;;;;;;-4.87;87.51;100378.47;5030951;28;20214;-68
2021/01/27 03:37:29;;;;;;;0.30;0.30;;;;;;;-4.87;87.59;100383.72;5031177;28;20210;-68
2021/01/27 03:40:02;;;;;;;4.10;0.63;;;;;;;-4.89;87.62;100382.00;5027372;28;20282;-68
2021/01/27 03:42:39;;;;;;;0.47;0.40;;;;;;;-4.86;87.71;100382.84;5022790;28;20203;-68
2021/01/27 03:45:10;;;;;;;0.30;0.30;;;;;;;-4.90;87.76;100381.09;5028368;28;20201;-68
2021/01/27 03:47:43;;;;;;;0.30;0.30;;;;;;;-4.88;87.49;100384.59;5023711;28;20559;-69
2021/01/27 03:50:15;;;;;;;0.50;0.50;;;;;;;-4.92;87.41;100375.03;5027213;28;20207;-68
2021/01/27 03:52:50;;;;;;;22.43;11.03;;;;;;;-4.96;87.01;100373.31;5029966;28;20232;-68
2021/01/27 03:55:23;;;;;;;0.50;0.50;;;;;;;-5.00;87.03;100367.25;5021525;28;20202;-69
2021/01/27 03:57:59;;;;;;;1.33;0.97;;;;;;;-4.92;87.75;100369.78;5026236;28;20218;-69
2021/01/27 04:00:29;;;;;;;718.77;387.43;;;;;;;-4.88;88.07;100365.41;5030988;28;20210;-69
2021/01/27 04:03:15;;;;;;;73.90;27.83;;;;;;;-4.79;88.13;100354.81;5031507;28;20286;-68
2021/01/27 04:05:42;;;;;;;2.33;1.23;;;;;;;-4.78;87.89;100357.41;5028855;28;20206;-68
2021/01/27 04:08:10;;;;;;;0.60;0.30;;;;;;;-4.76;87.59;100350.41;5030965;28;20241;-68
2021/01/27 04:10:38;;;;;;;0.10;0.10;;;;;;;-4.78;87.63;100346.94;5025225;28;20213;-69
2021/01/27 04:13:05;;;;;;;0.40;0.40;;;;;;;-4.72;87.75;100349.47;5025606;28;20233;-69
2021/01/27 04:15:32;;;;;;;0.50;0.50;;;;;;;-5.06;87.64;100299.28;5026901;28;20202;-69
2021/01/27 04:18:00;;;;;;;0.53;0.53;;;;;;;-4.71;87.70;100343.34;5022205;28;20550;-68
2021/01/27 04:20:28;;;;;;;0.77;0.43;;;;;;;-4.77;87.58;100340.81;5026938;28;20386;-69
2021/01/27 04:22:56;;;;;;;1.37;1.00;;;;;;;-4.70;87.50;100352.09;5030828;28;20195;-69
2021/01/27 04:25:24;;;;;;;0.50;0.50;;;;;;;-4.68;87.37;100358.16;5029916;28;20190;-68
2021/01/27 04:27:51;;;;;;;2.73;0.93;;;;;;;-4.73;87.28;100354.75;5029997;28;20202;-70
2021/01/27 04:30:23;;;;;;;0.53;0.47;;;;;;;-4.79;87.51;100350.44;5030557;28;20214;-69
2021/01/27 04:32:50;;;;;;;0.20;0.20;;;;;;;-4.85;87.53;100363.63;5031005;28;20206;-69
2021/01/27 04:35:19;;;;;;;0.30;0.30;;;;;;;-4.87;87.46;100362.78;5030615;28;20202;-69
2021/01/27 04:37:47;;;;;;;0.50;0.50;;;;;;;-5.12;87.56;100319.44;5030558;28;20194;-69
2021/01/27 04:40:18;;;;;;;0.47;0.47;;;;;;;-4.86;87.58;100351.41;5030738;28;20247;-69
2021/01/27 04:42:48;;;;;;;0.60;0.60;;;;;;;-4.94;87.39;100353.22;5030635;28;20213;-69
2021/01/27 04:45:16;;;;;;;0.50;0.50;;;;;;;-4.88;87.61;100355.81;5030512;28;20523;-69
2021/01/27 04:47:53;;;;;;;0.30;0.30;;;;;;;-5.04;87.12;100338.53;5030436;28;20206;-68
2021/01/27 04:50:26;;;;;;;0.73;0.73;;;;;;;-4.89;87.95;100343.59;5030947;28;20285;-69
2021/01/27 04:53:23;;;;;;;0.87;0.60;;;;;;;-4.89;87.66;100350.59;5029322;28;20202;-69
2021/01/27 04:56:17;;;;;;;0.67;0.60;;;;;;;-4.88;87.65;100355.81;5028603;28;20546;-69
2021/01/27 04:58:52;;;;;;;0.23;0.23;;;;;;;-4.89;87.72;100342.72;5023430;28;20248;-69
2021/01/27 05:01:55;;;;;;;0.83;0.83;;;;;;;-4.91;87.23;100334.00;5016721;28;20586;-69
2021/01/27 05:04:37;;;;;;;0.50;0.50;;;;;;;-4.90;87.73;100336.59;5010718;28;20233;-69
2021/01/27 05:07:10;;;;;;;0.40;0.40;;;;;;;-4.89;87.77;100337.50;5029722;28;20209;-69
2021/01/27 05:09:45;;;;;;;0.30;0.30;;;;;;;-4.88;87.49;100339.22;5027412;28;20232;-69
2021/01/27 05:12:15;;;;;;;0.30;0.30;;;;;;;-4.88;87.70;100339.22;5030134;28;20202;-69
2021/01/27 05:14:46;;;;;;;0.30;0.30;;;;;;;-4.89;87.60;100354.06;5020979;28;20241;-68
2021/01/27 05:17:16;;;;;;;0.60;0.60;;;;;;;-4.92;87.29;100364.53;5030211;28;20289;-69
2021/01/27 05:19:45;;;;;;;0.40;0.40;;;;;;;-4.95;87.38;100354.13;5029177;28;20252;-69
2021/01/27 05:22:13;;;;;;;0.37;0.37;;;;;;;-5.18;87.50;100322.97;5033115;28;20194;-68
2021/01/27 05:24:42;;;;;;;0.37;0.37;;;;;;;-4.99;87.40;100349.81;5020921;28;20233;-69
2021/01/27 05:27:16;;;;;;;0.53;0.40;;;;;;;-5.23;87.17;100321.28;5022655;28;20213;-69
2021/01/27 05:29:51;;;;;;;0.23;0.23;;;;;;;-5.09;87.10;100353.41;5027087;28;20285;-69
2021/01/27 05:32:19;;;;;;;4.23;0.57;;;;;;;-5.10;87.21;100354.28;5026979;28;20209;-69
2021/01/27 05:34:49;;;;;;;0.37;0.33;;;;;;;-5.13;87.06;100354.34;5026692;28;20605;-69
2021/01/27 05:37:20;;;;;;;0.20;0.20;;;;;;;-5.14;87.17;100349.97;5027204;28;20201;-69
2021/01/27 05:39:49;;;;;;;0.57;0.57;;;;;;;-5.14;87.27;100355.22;5025233;28;20280;-69
2021/01/27 05:42:28;;;;;;;0.20;0.20;;;;;;;-5.13;87.50;100355.19;5027512;28;20700;-69
2021/01/27 05:45:18;;;;;;;0.60;0.60;;;;;;;-5.40;87.69;100308.38;5027187;28;20320;-70
2021/01/27 05:47:45;;;;;;;0.23;0.23;;;;;;;-5.20;87.11;100352.66;5025281;28;20282;-69
2021/01/27 05:50:21;;;;;;;1.17;0.47;;;;;;;-5.27;87.18;100322.19;5028242;28;20209;-69
2021/01/27 05:52:49;;;;;;;0.30;0.30;;;;;;;-5.18;87.34;100340.44;5027788;28;20894;-69
2021/01/27 05:55:17;;;;;;;0.70;0.70;;;;;;;-5.20;87.22;100337.84;5025635;28;20199;-69
2021/01/27 05:57:57;;;;;;;367.50;128.40;;;;;;;-5.20;87.02;100336.97;5022402;28;20264;-69
2021/01/27 06:00:27;;;;;;;88.23;37.27;;;;;;;-5.19;87.41;100338.69;5026193;28;20198;-69
2021/01/27 06:02:57;;;;;;;19.20;4.53;;;;;;;-5.33;87.71;100316.16;5022375;28;20217;-69
2021/01/27 06:05:37;;;;;;;2.67;1.60;;;;;;;-5.10;87.95;100342.06;5025348;28;20733;-69
2021/01/27 06:08:14;;;;;;;2.23;1.27;;;;;;;-5.05;88.11;100342.03;5024888;28;20238;-69
2021/01/27 06:10:42;;;;;;;1.60;0.97;;;;;;;-5.02;88.19;100342.84;5020117;28;20687;-69
2021/01/27 06:13:24;;;;;;;8.37;0.77;;;;;;;-5.02;87.79;100342.84;5025477;28;20242;-69
2021/01/27 06:15:53;;;;;;;1.23;0.67;;;;;;;-5.05;87.81;100344.63;5026105;28;20199;-69
2021/01/27 06:18:24;;;;;;;0.63;0.63;;;;;;;-5.09;87.49;100341.19;5025407;28;20271;-69
2021/01/27 06:21:14;;;;;;;3.23;0.90;;;;;;;-5.13;87.35;100341.25;5027229;28;20556;-69
2021/01/27 06:23:58;;;;;;;0.50;0.50;;;;;;;-5.23;87.01;100342.22;5026432;28;20223;-69
2021/01/27 06:27:03;;;;;;;2.43;1.30;;;;;;;-5.28;87.00;100349.25;5021920;28;20210;-69
2021/01/27 06:29:56;;;;;;;0.47;0.47;;;;;;;-5.37;87.07;100347.59;5025997;28;20202;-69
2021/01/27 06:32:47;;;;;;;0.70;0.67;;;;;;;-5.43;87.31;100348.53;4999796;28;20199;-69
2021/01/27 06:35:30;;;;;;;0.33;0.33;;;;;;;-5.48;87.10;100347.69;5025540;28;20245;-69
2021/01/27 06:38:29;;;;;;;0.43;0.43;;;;;;;-5.54;87.06;100342.50;5027278;28;20198;-69
2021/01/27 06:41:12;;;;;;;0.82;0.82;;;;;;;-5.75;87.21;100322.66;5017774;28;20433;-69
2021/01/27 06:44:06;;;;;;;0.50;0.50;;;;;;;-5.62;87.43;100352.16;5023193;28;20594;-69
2021/01/27 06:46:52;;;;;;;0.40;0.40;;;;;;;-5.61;87.09;100353.91;5023126;28;20210;-69
2021/01/27 06:49:48;;;;;;;0.67;0.53;;;;;;;-5.67;87.27;100357.44;5027740;28;20210;-69
2021/01/27 06:52:49;;;;;;;1.77;0.40;;;;;;;-5.85;86.30;100359.31;5028480;28;20199;-69
2021/01/27 06:55:23;;;;;;;0.40;0.40;;;;;;;-6.26;86.45;100314.34;5019354;28;20215;-69
2021/01/27 06:58:05;;;;;;;0.43;0.43;;;;;;;-5.94;86.66;100368.13;5025993;28;20205;-69
2021/01/27 07:00:43;;;;;;;0.20;0.20;;;;;;;-6.03;86.46;100352.53;5020072;28;20202;-69
2021/01/27 07:03:53;;;;;;;0.33;0.33;;;;;;;-6.01;87.08;100369.06;5030629;28;20554;-69
2021/01/27 07:06:50;;;;;;;2.40;0.67;;;;;;;-6.06;86.80;100368.25;5028766;28;20198;-69
2021/01/27 07:09:46;;;;;;;2.50;0.90;;;;;;;-6.03;87.34;100376.06;5030152;28;20228;-69
2021/01/27 07:12:22;;;;;;;0.63;0.63;;;;;;;-6.31;87.32;100321.38;5030333;28;20288;-68
2021/01/27 07:15:19;;;;;;;0.60;0.60;;;;;;;-5.99;87.90;100376.00;5032078;28;20221;-70
2021/01/27 07:18:05;;;;;;;2.70;0.87;;;;;;;-5.97;87.44;100373.38;5028184;28;20664;-70
2021/01/27 07:20:37;;;;;;;0.30;0.30;;;;;;;-6.01;87.35;100371.69;5021620;28;20202;-67
2021/01/27 07:23:13;;;;;;;0.20;0.20;;;;;;;-6.01;87.53;100372.53;5028919;28;20668;-68
2021/01/27 07:25:59;;;;;;;1.43;1.10;;;;;;;-6.01;87.55;100375.16;5031156;28;20229;-68
2021/01/27 07:28:32;;;;;;;10.63;5.97;;;;;;;-6.01;87.49;100369.94;5031080;28;20220;-67
2021/01/27 07:31:10;;;;;;;0.80;0.80;;;;;;;-6.05;87.39;100370.84;5029937;28;20206;-67
2021/01/27 07:33:43;;;;;;;1.20;1.10;;;;;;;-6.20;87.28;100354.38;5029301;28;20189;-67
2021/01/27 07:36:41;;;;;;;2.00;1.37;;;;;;;-6.02;87.68;100370.81;5027625;28;20573;-67
2021/01/27 07:39:15;;;;;;;1.40;1.30;;;;;;;-5.93;88.14;100369.00;5030389;28;20205;-67
2021/01/27 07:41:56;;;;;;;1.83;1.33;;;;;;;-5.77;88.92;100368.00;5029613;28;20209;-67
2021/01/27 07:44:27;;;;;;;0.93;0.90;;;;;;;-5.56;89.18;100377.41;5030833;28;20316;-69
2021/01/27 07:47:02;;;;;;;4.93;0.83;;;;;;;-5.46;89.47;100374.72;5017496;28;20199;-67
2021/01/27 07:49:41;;;;;;;0.73;0.70;;;;;;;-5.51;88.32;100378.22;5029814;28;20252;-68
2021/01/27 07:52:17;;;;;;;77.77;32.90;;;;;;;-5.58;87.97;100380.03;5026007;28;20613;-67
2021/01/27 07:54:49;;;;;;;17.73;7.63;;;;;;;-5.62;87.87;100381.81;5018599;28;20560;-68
2021/01/27 07:57:38;;;;;;;3.43;1.37;;;;;;;-5.64;87.85;100382.69;5021660;28;20315;-67
2021/01/27 08:00:12;;;;;;;1.03;1.03;;;;;;;-5.66;88.13;100384.47;5030495;28;20202;-68
2021/01/27 08:02:59;;;;;;;5.67;1.33;;;;;;;-5.66;87.92;100387.06;5030299;28;20201;-68
2021/01/27 08:05:27;;;;;;;1.10;0.77;;;;;;;-5.62;88.40;100383.53;5030771;28;20232;-69
2021/01/27 08:08:06;;;;;;;0.60;0.60;;;;;;;-5.60;88.50;100386.16;5030391;28;20208;-68
2021/01/27 08:10:35;;;;;;;0.60;0.60;;;;;;;-5.74;87.93;100370.59;5027290;28;20198;-69
2021/01/27 08:13:07;;;;;;;0.47;0.47;;;;;;;-5.67;87.83;100386.19;5026248;28;20323;-69
2021/01/27 08:16:09;;;;;;;2.80;1.03;;;;;;;-5.65;88.01;100384.44;5028578;28;20198;-68
2021/01/27 08:19:01;;;;;;;0.57;0.57;;;;;;;-5.67;88.00;100386.19;4969289;28;20259;-67
2021/01/27 08:21:29;;;;;;;0.63;0.63;;;;;;;-5.60;88.51;100394.00;5028325;28;20233;-67
2021/01/27 08:23:56;;;;;;;0.50;0.50;;;;;;;-5.52;88.78;100393.03;5029184;28;20626;-68
2021/01/27 08:26:49;;;;;;;0.57;0.57;;;;;;;-5.44;88.92;100386.03;5030404;28;20251;-68
2021/01/27 08:29:28;;;;;;;0.70;0.50;;;;;;;-5.41;88.82;100386.00;5030758;28;20222;-68
2021/01/27 08:32:28;;;;;;;0.63;0.50;;;;;;;-5.38;88.93;100383.34;5028182;28;20225;-68
2021/01/27 08:34:59;;;;;;;0.87;0.50;;;;;;;-5.34;89.02;100377.19;5028468;28;20202;-68
2021/01/27 08:37:28;;;;;;;1.23;0.97;;;;;;;-5.29;88.95;100378.91;5030158;28;20217;-68
2021/01/27 08:40:14;;;;;;;1.10;1.03;;;;;;;-5.22;89.28;100375.34;5028507;28;20387;-68
2021/01/27 08:42:45;;;;;;;1.50;0.47;;;;;;;-5.17;89.27;100374.44;5028601;28;20198;-68
2021/01/27 08:45:28;;;;;;;0.40;0.40;;;;;;;-5.07;89.54;100380.44;5029534;28;20233;-68
2021/01/27 08:47:58;;;;;;;2.10;0.90;;;;;;;-5.01;89.49;100377.75;5029732;28;20189;-68
2021/01/27 08:50:44;;;;;;;5.23;1.10;;;;;;;-4.96;89.65;100373.31;5029518;28;20227;-67
2021/01/27 08:53:14;;;;;;;0.50;0.50;;;;;;;-4.87;89.45;100370.63;5027205;28;20206;-68
2021/01/27 08:55:55;;;;;;;1.03;0.50;;;;;;;-4.78;89.43;100373.13;5029572;28;20566;-67
2021/01/27 08:58:28;;;;;;;0.50;0.50;;;;;;;-4.71;89.24;100374.78;5028657;28;20201;-68
2021/01/27 09:00:59;;;;;;;0.30;0.30;;;;;;;-4.69;89.65;100366.91;5029342;28;20216;-67
2021/01/27 09:03:59;;;;;;;0.50;0.50;;;;;;;-4.57;89.49;100372.03;5029362;28;20213;-68
2021/01/27 09:06:34;;;;;;;0.67;0.67;;;;;;;-4.52;89.38;100380.69;5029753;28;20232;-67
2021/01/27 09:09:12;;;;;;;0.30;0.30;;;;;;;-4.47;89.24;100381.47;5028471;28;20530;-67
2021/01/27 09:11:39;;;;;;;0.37;0.37;;;;;;;-4.44;88.94;100372.72;5025244;28;20209;-67
2021/01/27 09:14:08;;;;;;;0.97;0.30;;;;;;;-4.38;89.03;100377.88;5028846;28;20234;-67
2021/01/27 09:16:37;;;;;;;0.20;0.20;;;;;;;-4.32;89.32;100377.78;5025394;28;20218;-67
2021/01/27 09:19:08;;;;;;;0.33;0.33;;;;;;;-4.25;89.11;100382.09;5025846;28;20209;-67
2021/01/27 09:21:36;;;;;;;0.30;0.30;;;;;;;-4.23;89.07;100380.31;5028997;28;20206;-67
2021/01/27 09:24:06;;;;;;;0.50;0.47;;;;;;;-4.13;89.15;100387.13;5017829;28;20223;-68
2021/01/27 09:26:42;;;;;;;1.13;0.30;;;;;;;-4.07;89.37;100384.44;5018741;28;20540;-68
2021/01/27 09:29:13;;;;;;;0.30;0.30;;;;;;;-4.01;89.25;100382.59;5020332;28;20544;-68
2021/01/27 09:31:42;;;;;;;0.20;0.20;;;;;;;-3.96;89.11;100380.81;5021819;28;20325;-68
2021/01/27 09:34:20;;;;;;;0.77;0.30;;;;;;;-3.88;89.33;100392.03;5023819;28;20197;-68
2021/01/27 09:36:49;;;;;;;0.30;0.30;;;;;;;-3.85;89.35;100386.75;5028263;28;20205;-68
2021/01/27 09:39:26;;;;;;;0.30;0.30;;;;;;;-3.77;89.26;100396.22;5028945;28;20232;-67
2021/01/27 09:41:53;;;;;;;0.47;0.43;;;;;;;-3.81;87.99;100393.66;5024616;28;20225;-68
2021/01/27 09:44:31;;;;;;;0.30;0.30;;;;;;;-3.71;88.71;100390.00;5018250;28;20229;-68
2021/01/27 09:47:06;;;;;;;0.47;0.43;;;;;;;-3.69;88.67;100385.59;5015292;28;20216;-69
2021/01/27 09:49:39;;;;;;;0.40;0.40;;;;;;;-3.58;88.57;100388.94;5027297;28;20232;-68
2021/01/27 09:52:11;;;;;;;0.30;0.30;;;;;;;-3.80;88.89;100340.34;5016812;28;20218;-68
2021/01/27 09:54:42;;;;;;;0.60;0.40;;;;;;;-3.52;88.75;100382.72;5019801;28;20572;-68
2021/01/27 09:57:12;;;;;;;0.27;0.27;;;;;;;-3.41;89.13;100387.78;5018567;28;20202;-68
2021/01/27 09:59:40;;;;;;;0.30;0.30;;;;;;;-3.39;89.12;100386.88;5016427;28;20294;-68
2021/01/27 10:02:12;;;;;;;0.70;0.50;;;;;;;-3.38;89.25;100366.72;5028584;28;20216;-68
2021/01/27 10:04:41;;;;;;;0.20;0.20;;;;;;;-3.23;89.11;100382.22;5023406;28;20325;-68
2021/01/27 10:07:13;;;;;;;0.20;0.20;;;;;;;-3.39;89.10;100347.50;5016762;28;20203;-68
2021/01/27 10:09:45;;;;;;;0.37;0.37;;;;;;;-3.19;89.05;100376.91;5016479;28;20629;-69
2021/01/27 10:12:22;;;;;;;0.30;0.30;;;;;;;-3.08;89.18;100379.31;5020700;28;20239;-68
2021/01/27 10:14:56;;;;;;;0.43;0.43;;;;;;;-3.06;88.78;100379.28;5028030;28;20598;-68
2021/01/27 10:17:29;;;;;;;0.33;0.33;;;;;;;-2.98;89.05;100378.28;5028765;28;20213;-68
2021/01/27 10:20:26;;;;;;;1.60;0.33;;;;;;;-2.92;88.97;100379.91;5024613;28;20203;-69
2021/01/27 10:22:59;;;;;;;0.30;0.30;;;;;;;-2.87;89.12;100376.31;5023519;28;20210;-68
2021/01/27 10:25:36;;;;;;;0.97;0.70;;;;;;;-2.84;89.10;100365.72;5027056;28;20334;-69
2021/01/27 10:28:08;;;;;;;0.53;0.53;;;;;;;-2.78;88.95;100363.88;5026589;28;20281;-71
2021/01/27 10:30:47;;;;;;;0.23;0.23;;;;;;;-2.74;89.01;100357.69;5025733;28;20597;-68
2021/01/27 10:33:40;;;;;;;0.20;0.20;;;;;;;-2.71;88.95;100355.00;5022682;28;20207;-67
2021/01/27 10:36:31;;;;;;;0.30;0.30;;;;;;;-2.62;89.00;100362.69;5013800;28;20200;-68
2021/01/27 10:39:22;;;;;;;1.13;0.40;;;;;;;-2.57;89.14;100360.84;5020542;28;20503;-68
2021/01/27 10:41:53;;;;;;;0.50;0.50;;;;;;;-2.56;89.03;100365.19;5018413;28;20214;-68
2021/01/27 10:44:27;;;;;;;0.30;0.30;;;;;;;-2.48;88.92;100367.66;5032151;28;20225;-67
2021/01/27 10:46:58;;;;;;;0.93;0.83;;;;;;;-2.46;89.11;100366.72;5026859;28;20694;-68
2021/01/27 10:49:27;;;;;;;1.10;0.50;;;;;;;-2.52;88.65;100337.94;5021627;28;20207;-68
2021/01/27 10:52:03;;;;;;;1.03;0.90;;;;;;;-2.37;88.99;100361.28;5018737;28;20202;-68
2021/01/27 10:54:31;;;;;;;0.60;0.60;;;;;;;-2.37;88.88;100350.78;5029776;28;20626;-68
2021/01/27 10:56:58;;;;;;;0.40;0.40;;;;;;;-2.32;88.61;100351.53;5024784;28;20198;-68
2021/01/27 10:59:25;;;;;;;0.50;0.50;;;;;;;-2.28;88.83;100349.69;5027505;28;20210;-68
2021/01/27 11:01:53;;;;;;;0.97;0.87;;;;;;;-2.22;88.96;100353.06;5027263;28;20641;-68
2021/01/27 11:04:20;;;;;;;0.70;0.70;;;;;;;-2.23;88.77;100338.19;5027010;28;20243;-69
2021/01/27 11:06:48;;;;;;;0.80;0.80;;;;;;;-2.19;88.38;100357.38;5015799;28;20214;-69
2021/01/27 11:09:16;;;;;;;1.17;0.60;;;;;;;-2.19;87.64;100354.75;5027004;28;20207;-69
2021/01/27 11:11:43;;;;;;;1.33;0.67;;;;;;;-2.14;88.26;100347.66;5028442;28;20195;-68
2021/01/27 11:14:10;;;;;;;0.80;0.80;;;;;;;-2.10;88.28;100341.41;5028283;28;20238;-68
2021/01/27 11:16:37;;;;;;;0.80;0.70;;;;;;;-2.06;88.82;100347.47;5027641;28;20201;-70
2021/01/27 11:19:05;;;;;;;0.50;0.50;;;;;;;-1.96;88.90;100354.22;5027093;28;20274;-69
2021/01/27 11:21:32;;;;;;;6.90;0.60;;;;;;;-1.93;88.69;100355.03;5029617;28;20199;-69
2021/01/27 11:24:01;;;;;;;0.60;0.50;;;;;;;-1.87;88.51;100359.28;5030339;28;20199;-67
2021/01/27 11:26:28;;;;;;;0.40;0.40;;;;;;;-1.99;88.80;100328.00;5026346;28;20207;-68
2021/01/27 11:28:56;;;;;;;0.40;0.40;;;;;;;-1.84;88.45;100343.41;5029309;28;20198;-68
2021/01/27 11:31:26;;;;;;;1.83;0.67;;;;;;;-1.79;88.60;100346.81;5029984;28;20203;-69
2021/01/27 11:33:53;;;;;;;0.67;0.67;;;;;;;-1.74;88.41;100344.94;5027928;28;20205;-68
2021/01/27 11:36:23;;;;;;;0.80;0.80;;;;;;;-1.70;88.52;100343.97;5022656;28;20686;-68
2021/01/27 11:38:51;;;;;;;1.47;0.97;;;;;;;-1.68;88.16;100350.06;5031848;28;20191;-68
2021/01/27 11:41:20;;;;;;;0.80;0.80;;;;;;;-1.64;88.80;100346.44;5031911;28;20202;-68
2021/01/27 11:43:47;;;;;;;0.63;0.50;;;;;;;-1.61;88.38;100335.84;5031603;28;20195;-68
2021/01/27 11:46:18;;;;;;;0.60;0.60;;;;;;;-1.59;88.32;100334.03;5031334;28;20642;-68
2021/01/27 11:48:46;;;;;;;0.47;0.47;;;;;;;-1.77;88.23;100302.91;5031534;28;20222;-68
2021/01/27 11:51:14;;;;;;;0.50;0.50;;;;;;;-1.53;88.39;100337.41;5031507;28;20199;-68
2021/01/27 11:53:42;;;;;;;0.67;0.67;;;;;;;-1.48;88.42;100340.81;5031190;28;20289;-68
2021/01/27 11:56:10;;;;;;;0.73;0.73;;;;;;;-1.44;88.51;100339.81;5031511;28;20210;-68